createdAt,value
2022-11-07T00:00:00.305Z,9.25
2022-11-07T00:02:26.732Z,9.26
2022-11-07T00:04:53.210Z,9.24
2022-11-07T00:07:19.567Z,9.20
2022-11-07T00:09:45.935Z,9.17
2022-11-07T00:12:12.359Z,9.19
2022-11-07T00:14:38.702Z,9.16
2022-11-07T00:17:05.101Z,9.16
2022-11-07T00:19:32.146Z,9.15
2022-11-07T00:21:58.565Z,9.09
2022-11-07T00:24:24.927Z,9.07
2022-11-07T00:26:51.417Z,9.05
2022-11-07T00:29:19.364Z,9.03
2022-11-07T00:31:46.020Z,8.99
2022-11-07T00:34:12.380Z,8.97
2022-11-07T00:36:38.825Z,8.93
2022-11-07T00:39:05.330Z,8.92
2022-11-07T00:41:31.752Z,8.93
2022-11-07T00:43:58.108Z,8.89
2022-11-07T00:46:24.514Z,8.88
2022-11-07T00:48:51.031Z,8.89
2022-11-07T00:51:22.609Z,8.90
2022-11-07T00:53:49.053Z,8.89
2022-11-07T00:56:16.959Z,8.89
2022-11-07T00:58:44.292Z,8.92
2022-11-07T01:01:20.158Z,8.92
2022-11-07T01:04:05.864Z,8.92
2022-11-07T01:06:33.236Z,8.96
2022-11-07T01:08:59.948Z,8.99
2022-11-07T01:11:27.792Z,9.01
2022-11-07T01:13:57.978Z,9.00
2022-11-07T01:16:24.553Z,9.01
2022-11-07T01:18:50.953Z,9.04
2022-11-07T01:21:18.134Z,9.10
2022-11-07T01:23:44.513Z,9.12
2022-11-07T01:26:12.002Z,9.15
2022-11-07T01:28:38.745Z,9.15
2022-11-07T01:31:06.250Z,9.16
2022-11-07T01:33:32.660Z,9.21
2022-11-07T01:36:08.784Z,9.23
2022-11-07T01:38:39.393Z,9.28
2022-11-07T01:41:22.572Z,9.32
2022-11-07T01:43:53.530Z,9.35
2022-11-07T01:46:21.216Z,9.34
2022-11-07T01:48:52.311Z,9.39
2022-11-07T01:51:18.704Z,9.43
2022-11-07T01:53:45.300Z,9.43
2022-11-07T01:56:16.305Z,9.49
2022-11-07T01:58:43.085Z,9.54
2022-11-07T02:01:09.540Z,9.57
2022-11-07T02:03:35.899Z,9.57
2022-11-07T02:06:05.366Z,9.60
2022-11-07T02:08:32.842Z,9.61
2022-11-07T02:11:00.667Z,9.61
2022-11-07T02:13:28.200Z,9.66
2022-11-07T02:15:54.572Z,9.73
2022-11-07T02:18:21.833Z,9.73
2022-11-07T02:20:48.209Z,9.74
2022-11-07T02:23:30.254Z,9.73
2022-11-07T02:25:56.621Z,9.73
2022-11-07T02:28:23.631Z,9.72
2022-11-07T02:30:50.004Z,9.71
2022-11-07T02:33:20.520Z,9.70
2022-11-07T02:35:48.271Z,9.72
2022-11-07T02:38:25.644Z,9.67
2022-11-07T02:41:05.004Z,9.68
2022-11-07T02:43:32.015Z,9.69
2022-11-07T02:46:00.227Z,9.67
2022-11-07T02:48:30.604Z,9.69
2022-11-07T02:50:57.353Z,9.72
2022-11-07T02:53:24.003Z,9.76
2022-11-07T02:55:50.477Z,9.78
2022-11-07T02:58:16.933Z,9.81
2022-11-07T03:00:43.330Z,9.83
2022-11-07T03:03:09.685Z,9.81
2022-11-07T03:05:36.075Z,9.83
2022-11-07T03:08:02.418Z,9.83
2022-11-07T03:10:28.785Z,9.84
2022-11-07T03:12:55.148Z,9.87
2022-11-07T03:15:21.497Z,9.88
2022-11-07T03:17:47.865Z,9.89
2022-11-07T03:20:14.266Z,9.90
2022-11-07T03:22:40.645Z,9.93
2022-11-07T03:25:08.176Z,9.91
2022-11-07T03:27:34.580Z,9.93
2022-11-07T03:30:00.914Z,9.93
2022-11-07T03:32:27.422Z,9.96
2022-11-07T03:34:53.780Z,9.94
2022-11-07T03:37:20.216Z,9.93
2022-11-07T03:39:46.582Z,9.97
2022-11-07T03:42:12.925Z,9.97
2022-11-07T03:44:39.404Z,9.96
2022-11-07T03:47:05.735Z,9.97
2022-11-07T03:49:32.102Z,9.96
2022-11-07T03:51:58.454Z,9.97
2022-11-07T03:54:24.836Z,9.96
2022-11-07T03:56:51.181Z,9.95
2022-11-07T03:59:17.538Z,9.97
2022-11-07T04:01:45.511Z,9.96
2022-11-07T04:04:12.976Z,9.97
2022-11-07T04:06:39.328Z,9.97
2022-11-07T04:09:05.922Z,9.97
2022-11-07T04:11:50.966Z,9.99
2022-11-07T04:14:35.804Z,9.99
2022-11-07T04:17:20.520Z,10.00
2022-11-07T04:19:47.892Z,10.01
2022-11-07T04:22:14.369Z,10.04
2022-11-07T04:24:45.954Z,10.04
2022-11-07T04:27:31.386Z,10.05
2022-11-07T04:29:57.738Z,10.08
2022-11-07T04:32:24.382Z,10.10
2022-11-07T04:34:51.667Z,10.08
2022-11-07T04:37:18.485Z,10.07
2022-11-07T04:39:44.834Z,10.05
2022-11-07T04:42:11.192Z,10.05
2022-11-07T04:44:37.565Z,10.06
2022-11-07T04:47:03.991Z,10.10
2022-11-07T04:49:30.348Z,10.08
2022-11-07T04:51:57.475Z,10.07
2022-11-07T04:54:23.847Z,10.07
2022-11-07T04:56:50.258Z,10.05
2022-11-07T04:59:16.619Z,10.07
2022-11-07T05:01:43.081Z,10.08
2022-11-07T05:04:10.677Z,10.09
2022-11-07T05:06:37.102Z,10.15
2022-11-07T05:09:03.744Z,10.17
2022-11-07T05:11:30.099Z,10.19
2022-11-07T05:13:56.460Z,10.19
2022-11-07T05:16:22.809Z,10.20
2022-11-07T05:18:49.176Z,10.20
2022-11-07T05:21:15.527Z,10.20
2022-11-07T05:23:41.886Z,10.18
2022-11-07T05:26:09.272Z,10.15
2022-11-07T05:28:39.460Z,10.12
2022-11-07T05:31:06.467Z,10.13
2022-11-07T05:33:32.963Z,10.13
2022-11-07T05:36:14.605Z,10.13
2022-11-07T05:38:42.050Z,10.16
2022-11-07T05:41:08.409Z,10.15
2022-11-07T05:43:34.805Z,10.14
2022-11-07T05:46:01.286Z,10.14
2022-11-07T05:48:27.748Z,10.14
2022-11-07T05:50:54.138Z,10.13
2022-11-07T05:53:21.301Z,10.08
2022-11-07T05:55:47.907Z,10.07
2022-11-07T05:58:14.272Z,10.02
2022-11-07T06:00:40.857Z,10.03
2022-11-07T06:03:07.450Z,10.03
2022-11-07T06:05:33.824Z,10.00
2022-11-07T06:08:00.173Z,10.02
2022-11-07T06:10:26.604Z,10.01
2022-11-07T06:13:00.053Z,9.99
2022-11-07T06:15:27.345Z,9.99
2022-11-07T06:17:53.739Z,10.01
2022-11-07T06:20:20.187Z,9.99
2022-11-07T06:22:46.579Z,9.94
2022-11-07T06:25:12.938Z,9.94
2022-11-07T06:27:39.329Z,9.94
2022-11-07T06:30:06.342Z,9.95
2022-11-07T06:32:33.019Z,9.98
2022-11-07T06:34:59.517Z,9.99
2022-11-07T06:37:26.469Z,9.99
2022-11-07T06:39:52.800Z,10.02
2022-11-07T06:42:19.177Z,10.02
2022-11-07T06:44:45.528Z,10.02
2022-11-07T06:47:11.875Z,10.04
2022-11-07T06:49:38.255Z,10.01
2022-11-07T06:52:04.811Z,10.03
2022-11-07T06:54:31.160Z,10.01
2022-11-07T06:56:57.507Z,10.02
2022-11-07T06:59:23.916Z,10.04
2022-11-07T07:01:50.713Z,9.99
2022-11-07T07:04:17.246Z,10.02
2022-11-07T07:06:43.716Z,10.01
2022-11-07T07:09:10.076Z,10.01
2022-11-07T07:11:37.458Z,10.02
2022-11-07T07:14:10.217Z,10.03
2022-11-07T07:16:38.026Z,10.01
2022-11-07T07:19:04.451Z,10.00
2022-11-07T07:21:30.808Z,10.01
2022-11-07T07:23:57.171Z,10.02
2022-11-07T07:26:23.527Z,10.09
2022-11-07T07:28:49.950Z,10.11
2022-11-07T07:31:16.288Z,10.16
2022-11-07T07:33:43.039Z,10.20
2022-11-07T07:36:09.802Z,10.22
2022-11-07T07:38:36.262Z,10.27
2022-11-07T07:41:02.620Z,10.29
2022-11-07T07:43:29.116Z,10.30
2022-11-07T07:45:59.535Z,10.33
2022-11-07T07:48:25.898Z,10.36
2022-11-07T07:50:52.289Z,10.38
2022-11-07T07:53:18.890Z,10.42
2022-11-07T07:55:45.449Z,10.44
2022-11-07T07:58:11.938Z,10.45
2022-11-07T08:00:38.526Z,10.49
2022-11-07T08:03:07.106Z,10.56
2022-11-07T08:05:33.517Z,10.59
2022-11-07T08:07:59.914Z,10.61
2022-11-07T08:10:43.024Z,10.64
2022-11-07T08:13:09.825Z,10.69
2022-11-07T08:15:36.243Z,10.73
2022-11-07T08:18:03.583Z,10.77
2022-11-07T08:20:29.971Z,10.80
2022-11-07T08:23:12.699Z,10.85
2022-11-07T08:25:42.327Z,10.98
2022-11-07T08:28:08.692Z,10.99
2022-11-07T08:30:35.492Z,11.03
2022-11-07T08:33:03.063Z,11.05
2022-11-07T08:35:30.321Z,11.13
2022-11-07T08:37:56.683Z,11.21
2022-11-07T08:40:23.118Z,11.21
2022-11-07T08:42:49.808Z,11.22
2022-11-07T08:45:16.245Z,11.26
2022-11-07T08:47:42.614Z,11.26
2022-11-07T08:50:09.080Z,11.28
2022-11-07T08:52:36.096Z,11.30
2022-11-07T08:55:05.784Z,11.30
2022-11-07T08:57:32.173Z,11.35
2022-11-07T08:59:58.567Z,11.38
2022-11-07T09:05:11.386Z,11.42
2022-11-07T09:07:39.297Z,11.46
2022-11-07T09:10:06.087Z,11.52
2022-11-07T09:12:32.455Z,11.54
2022-11-07T09:14:58.814Z,11.63
2022-11-07T09:17:25.176Z,11.67
2022-11-07T09:19:51.570Z,11.71
2022-11-07T09:22:17.999Z,11.74
2022-11-07T09:24:44.480Z,11.77
2022-11-07T09:27:10.825Z,11.82
2022-11-07T09:29:37.240Z,11.84
2022-11-07T09:32:23.339Z,11.88
2022-11-07T09:34:56.020Z,11.95
2022-11-07T09:37:24.653Z,11.99
2022-11-07T09:39:51.218Z,12.01
2022-11-07T09:42:20.621Z,12.06
2022-11-07T09:44:57.206Z,12.13
2022-11-07T09:47:29.201Z,12.18
2022-11-07T09:50:00.641Z,12.23
2022-11-07T09:52:45.309Z,12.26
2022-11-07T09:55:16.531Z,12.30
2022-11-07T09:57:42.995Z,12.32
2022-11-07T10:00:18.588Z,12.37
2022-11-07T10:02:55.087Z,12.41
2022-11-07T10:05:36.102Z,12.43
2022-11-07T10:08:07.391Z,12.49
2022-11-07T10:10:49.027Z,12.54
2022-11-07T10:13:28.977Z,12.63
2022-11-07T10:16:22.142Z,12.71
2022-11-07T10:19:17.913Z,12.78
2022-11-07T10:22:03.813Z,12.76
2022-11-07T10:24:39.203Z,12.77
2022-11-07T10:27:09.069Z,12.78
2022-11-07T10:29:47.923Z,12.79
2022-11-07T10:32:44.157Z,12.83
2022-11-07T10:35:30.414Z,12.86
2022-11-07T10:37:58.473Z,12.91
2022-11-07T10:40:28.496Z,12.97
2022-11-07T10:42:55.812Z,13.00
2022-11-07T10:45:22.186Z,13.01
2022-11-07T10:48:02.742Z,13.06
2022-11-07T10:50:30.076Z,13.11
2022-11-07T10:53:06.294Z,13.14
2022-11-07T10:55:41.892Z,13.20
2022-11-07T10:58:08.281Z,13.24
2022-11-07T11:00:36.891Z,13.28
2022-11-07T11:03:03.345Z,13.30
2022-11-07T11:05:46.117Z,13.31
2022-11-07T11:08:16.832Z,13.29
2022-11-07T11:10:43.695Z,13.31
2022-11-07T11:13:29.315Z,13.29
2022-11-07T11:16:04.241Z,13.27
2022-11-07T11:18:32.007Z,13.24
2022-11-07T11:20:58.850Z,13.25
2022-11-07T11:23:26.978Z,13.25
2022-11-07T11:25:59.555Z,13.21
2022-11-07T11:28:30.289Z,13.19
2022-11-07T11:30:59.036Z,13.20
2022-11-07T11:33:28.293Z,13.19
2022-11-07T11:36:04.002Z,13.19
2022-11-07T11:38:33.110Z,13.20
2022-11-07T11:41:07.604Z,13.22
2022-11-07T11:43:41.940Z,13.28
2022-11-07T11:46:14.805Z,13.35
2022-11-07T11:48:45.394Z,13.35
2022-11-07T11:51:27.276Z,13.41
2022-11-07T11:53:53.650Z,13.45
2022-11-07T11:56:26.491Z,13.46
2022-11-07T11:59:11.483Z,13.48
2022-11-07T12:01:40.779Z,13.47
2022-11-07T12:04:35.117Z,13.44
2022-11-07T12:07:19.481Z,13.43
2022-11-07T12:09:48.447Z,13.40
2022-11-07T12:12:33.331Z,13.43
2022-11-07T12:15:22.936Z,13.48
2022-11-07T12:17:59.804Z,13.60
2022-11-07T12:20:30.603Z,13.70
2022-11-07T12:23:23.015Z,13.81
2022-11-07T12:26:12.953Z,13.93
2022-11-07T12:29:07.673Z,14.03
2022-11-07T12:32:05.196Z,14.13
2022-11-07T12:34:46.759Z,14.16
2022-11-07T12:37:42.685Z,14.23
2022-11-07T12:40:28.324Z,14.28
2022-11-07T12:42:58.813Z,14.32
2022-11-07T12:46:15.560Z,14.42
2022-11-07T12:48:44.755Z,14.49
2022-11-07T12:51:32.538Z,14.54
2022-11-07T12:54:20.524Z,14.60
2022-11-07T12:56:46.941Z,14.69
2022-11-07T12:59:22.942Z,14.70
2022-11-07T13:02:11.522Z,14.74
2022-11-07T13:04:53.169Z,14.75
2022-11-07T13:07:39.666Z,14.77
2022-11-07T13:10:13.745Z,14.79
2022-11-07T13:12:41.767Z,14.79
2022-11-07T13:15:09.168Z,14.85
2022-11-07T13:17:40.719Z,14.85
2022-11-07T13:20:25.514Z,14.83
2022-11-07T13:22:56.230Z,14.82
2022-11-07T13:25:25.949Z,14.80
2022-11-07T13:27:55.374Z,14.79
2022-11-07T13:30:22.881Z,14.80
2022-11-07T13:32:50.224Z,14.77
2022-11-07T13:35:22.701Z,14.72
2022-11-07T13:38:10.037Z,14.66
2022-11-07T13:40:50.471Z,14.65
2022-11-07T13:43:22.571Z,14.62
2022-11-07T13:45:50.869Z,14.62
2022-11-07T13:48:31.295Z,14.59
2022-11-07T13:51:15.954Z,14.56
2022-11-07T13:53:43.712Z,14.52
2022-11-07T13:56:52.029Z,14.47
2022-11-07T13:59:36.938Z,14.39
2022-11-07T14:02:03.642Z,14.33
2022-11-07T14:04:30.820Z,14.29
2022-11-07T14:07:01.457Z,14.20
2022-11-07T14:09:28.884Z,14.13
2022-11-07T14:11:55.353Z,14.08
2022-11-07T14:14:26.217Z,14.01
2022-11-07T14:16:56.211Z,13.94
2022-11-07T14:19:27.045Z,13.88
2022-11-07T14:21:55.024Z,13.87
2022-11-07T14:24:25.375Z,13.88
2022-11-07T14:27:19.028Z,13.83
2022-11-07T14:29:58.227Z,13.78
2022-11-07T14:32:29.336Z,13.78
2022-11-07T14:34:58.064Z,13.79
2022-11-07T14:37:25.367Z,13.75
2022-11-07T14:39:51.792Z,13.68
2022-11-07T14:42:22.920Z,13.65
2022-11-07T14:44:55.656Z,13.65
2022-11-07T14:47:31.754Z,13.65
2022-11-07T14:49:58.186Z,13.56
2022-11-07T14:52:32.080Z,13.43
2022-11-07T14:55:01.135Z,13.26
2022-11-07T14:57:27.541Z,13.10
2022-11-07T14:59:54.257Z,13.02
2022-11-07T15:02:32.131Z,12.94
2022-11-07T15:05:06.794Z,12.90
2022-11-07T15:07:46.097Z,12.84
2022-11-07T15:10:15.887Z,12.84
2022-11-07T15:12:51.832Z,12.83
2022-11-07T15:15:19.918Z,12.81
2022-11-07T15:17:48.478Z,12.80
2022-11-07T15:20:35.708Z,12.83
2022-11-07T15:23:05.174Z,12.86
2022-11-07T15:25:35.865Z,12.86
2022-11-07T15:28:18.101Z,12.83
2022-11-07T15:30:45.285Z,12.83
2022-11-07T15:33:17.021Z,12.82
2022-11-07T15:35:44.988Z,12.82
2022-11-07T15:38:15.446Z,12.86
2022-11-07T15:40:42.111Z,12.84
2022-11-07T15:43:08.478Z,12.83
2022-11-07T15:45:34.988Z,12.81
2022-11-07T15:48:01.376Z,12.81
2022-11-07T15:50:27.741Z,12.76
2022-11-07T15:52:54.282Z,12.77
2022-11-07T15:55:21.778Z,12.75
2022-11-07T15:57:49.787Z,12.75
2022-11-07T16:00:17.905Z,12.72
2022-11-07T16:02:44.726Z,12.73
2022-11-07T16:05:14.675Z,12.73
2022-11-07T16:07:41.927Z,12.70
2022-11-07T16:10:19.112Z,12.73
2022-11-07T16:12:45.505Z,12.71
2022-11-07T16:15:15.684Z,12.72
2022-11-07T16:17:42.030Z,12.70
2022-11-07T16:20:33.350Z,12.73
2022-11-07T16:23:00.410Z,12.75
2022-11-07T16:25:27.117Z,12.74
2022-11-07T16:27:54.639Z,12.74
2022-11-07T16:30:21.561Z,12.76
2022-11-07T16:32:48.228Z,12.74
2022-11-07T16:35:14.851Z,12.73
2022-11-07T16:37:41.198Z,12.72
2022-11-07T16:40:12.186Z,12.70
2022-11-07T16:42:38.544Z,12.69
2022-11-07T16:45:05.347Z,12.69
2022-11-07T16:47:31.805Z,12.68
2022-11-07T16:49:58.264Z,12.67
2022-11-07T16:52:28.169Z,12.67
2022-11-07T16:54:54.668Z,12.67
2022-11-07T16:57:21.025Z,12.65
2022-11-07T16:59:47.488Z,12.69
2022-11-07T17:02:21.201Z,12.70
2022-11-07T17:04:48.651Z,12.71
2022-11-07T17:07:15.191Z,12.72
2022-11-07T17:09:41.925Z,12.73
2022-11-07T17:12:19.164Z,12.71
2022-11-07T17:14:45.554Z,12.70
2022-11-07T17:17:16.069Z,12.73
2022-11-07T17:19:42.460Z,12.74
2022-11-07T17:22:10.365Z,12.75
2022-11-07T17:24:36.762Z,12.76
2022-11-07T17:27:03.207Z,12.74
2022-11-07T17:29:29.588Z,12.77
2022-11-07T17:31:55.970Z,12.80
2022-11-07T17:34:22.830Z,12.84
2022-11-07T17:36:49.974Z,12.85
2022-11-07T17:39:18.374Z,12.81
2022-11-07T17:41:45.635Z,12.84
2022-11-07T17:44:12.095Z,12.83
2022-11-07T17:46:43.563Z,12.81
2022-11-07T17:49:10.888Z,12.76
2022-11-07T17:51:37.248Z,12.74
2022-11-07T17:54:04.212Z,12.71
2022-11-07T17:56:30.949Z,12.68
2022-11-07T17:59:07.949Z,12.70
2022-11-07T18:01:35.617Z,12.69
2022-11-07T18:04:02.152Z,12.70
2022-11-07T18:06:28.538Z,12.71
2022-11-07T18:08:58.544Z,12.74
2022-11-07T18:11:26.649Z,12.70
2022-11-07T18:13:53.711Z,12.75
2022-11-07T18:16:22.430Z,12.76
2022-11-07T18:18:48.960Z,12.75
2022-11-07T18:21:15.528Z,12.74
2022-11-07T18:23:42.150Z,12.77
2022-11-07T18:26:10.415Z,12.79
2022-11-07T18:28:37.620Z,12.83
2022-11-07T18:31:09.252Z,12.86
2022-11-07T18:33:35.684Z,12.87
2022-11-07T18:36:04.558Z,12.85
2022-11-07T18:38:31.244Z,12.83
2022-11-07T18:41:02.502Z,12.78
2022-11-07T18:43:29.091Z,12.78
2022-11-07T18:45:55.642Z,12.75
2022-11-07T18:48:22.007Z,12.78
2022-11-07T18:50:48.352Z,12.85
2022-11-07T18:53:15.080Z,12.86
2022-11-07T18:55:41.459Z,12.84
2022-11-07T18:58:07.835Z,12.82
2022-11-07T19:00:34.591Z,12.81
2022-11-07T19:03:02.135Z,12.83
2022-11-07T19:05:28.770Z,12.80
2022-11-07T19:07:55.211Z,12.76
2022-11-07T19:10:21.588Z,12.72
2022-11-07T19:12:47.936Z,12.72
2022-11-07T19:15:14.381Z,12.77
2022-11-07T19:17:40.804Z,12.77
2022-11-07T19:20:07.663Z,12.82
2022-11-07T19:22:34.089Z,12.82
2022-11-07T19:25:00.476Z,12.86
2022-11-07T19:27:26.829Z,12.85
2022-11-07T19:29:53.277Z,12.87
2022-11-07T19:32:19.691Z,12.92
2022-11-07T19:34:46.081Z,12.93
2022-11-07T19:37:12.428Z,12.94
2022-11-07T19:39:38.837Z,12.95
2022-11-07T19:42:05.437Z,12.94
2022-11-07T19:44:33.917Z,12.94
2022-11-07T19:47:00.344Z,12.95
2022-11-07T19:49:26.697Z,12.97
2022-11-07T19:51:53.117Z,13.02
2022-11-07T19:54:19.555Z,13.07
2022-11-07T19:56:45.978Z,13.08
2022-11-07T19:59:12.328Z,13.08
2022-11-07T20:01:39.495Z,13.11
2022-11-07T20:04:06.184Z,13.11
2022-11-07T20:06:35.384Z,13.08
2022-11-07T20:09:02.669Z,13.10
2022-11-07T20:11:29.109Z,13.15
2022-11-07T20:14:00.152Z,13.17
2022-11-07T20:16:29.246Z,13.12
2022-11-07T20:18:55.625Z,13.09
2022-11-07T20:21:22.432Z,13.15
2022-11-07T20:23:49.215Z,13.19
2022-11-07T20:26:21.234Z,13.19
2022-11-07T20:28:47.824Z,13.23
2022-11-07T20:31:15.790Z,13.26
2022-11-07T20:33:42.356Z,13.25
2022-11-07T20:36:10.069Z,13.28
2022-11-07T20:38:36.518Z,13.31
2022-11-07T20:41:03.205Z,13.31
2022-11-07T20:43:29.987Z,13.30
2022-11-07T20:45:56.654Z,13.27
2022-11-07T20:48:23.026Z,13.29
2022-11-07T20:50:49.512Z,13.31
2022-11-07T20:53:16.164Z,13.29
2022-11-07T20:55:42.856Z,13.28
2022-11-07T20:58:10.185Z,13.34
2022-11-07T21:00:38.107Z,13.36
2022-11-07T21:03:04.555Z,13.35
2022-11-07T21:05:31.022Z,13.36
2022-11-07T21:07:57.440Z,13.35
2022-11-07T21:10:23.920Z,13.30
2022-11-07T21:12:50.327Z,13.28
2022-11-07T21:15:16.728Z,13.29
2022-11-07T21:17:43.092Z,13.33
2022-11-07T21:20:10.191Z,13.30
2022-11-07T21:22:36.627Z,13.26
2022-11-07T21:25:05.119Z,13.24
2022-11-07T21:27:36.122Z,13.22
2022-11-07T21:30:04.870Z,13.20
2022-11-07T21:32:31.470Z,13.17
2022-11-07T21:34:57.880Z,13.17
2022-11-07T21:37:24.255Z,13.13
2022-11-07T21:39:50.665Z,13.06
2022-11-07T21:42:17.088Z,12.99
2022-11-07T21:44:43.465Z,12.92
2022-11-07T21:47:09.823Z,12.89
2022-11-07T21:49:36.204Z,12.87
2022-11-07T21:52:02.566Z,12.83
2022-11-07T21:54:29.086Z,12.80
2022-11-07T21:56:55.736Z,12.77
2022-11-07T21:59:22.190Z,12.76
2022-11-07T22:01:49.833Z,12.68
2022-11-07T22:04:16.407Z,12.67
2022-11-07T22:06:44.373Z,12.63
2022-11-07T22:09:15.015Z,12.59
2022-11-07T22:11:41.433Z,12.59
2022-11-07T22:14:08.598Z,12.59
2022-11-07T22:16:36.109Z,12.61
2022-11-07T22:19:02.530Z,12.61
2022-11-07T22:21:30.444Z,12.60
2022-11-07T22:23:56.818Z,12.59
2022-11-07T22:26:24.506Z,12.57
2022-11-07T22:28:50.996Z,12.61
2022-11-07T22:31:25.207Z,12.58
2022-11-07T22:33:52.401Z,12.59
2022-11-07T22:36:18.921Z,12.55
2022-11-07T22:38:45.289Z,12.52
2022-11-07T22:41:16.223Z,12.50
2022-11-07T22:43:42.717Z,12.50
2022-11-07T22:46:11.956Z,12.49
2022-11-07T22:48:38.354Z,12.43
2022-11-07T22:51:09.467Z,12.48
2022-11-07T22:53:35.841Z,12.47
2022-11-07T22:56:08.485Z,12.49
2022-11-07T22:58:34.827Z,12.51
2022-11-07T23:01:01.182Z,12.54
2022-11-07T23:03:27.580Z,12.54
2022-11-07T23:05:53.939Z,12.58
2022-11-07T23:08:20.590Z,12.57
2022-11-07T23:11:14.406Z,12.55
2022-11-07T23:13:44.144Z,12.51
2022-11-07T23:16:27.475Z,12.50
2022-11-07T23:18:58.092Z,12.51
2022-11-07T23:21:24.943Z,12.50
2022-11-07T23:23:55.075Z,12.58
2022-11-07T23:26:21.542Z,12.61
2022-11-07T23:28:48.069Z,12.61
2022-11-07T23:31:14.666Z,12.57
2022-11-07T23:33:41.093Z,12.54
2022-11-07T23:36:10.587Z,12.52
2022-11-07T23:38:36.929Z,12.51
2022-11-07T23:41:04.116Z,12.52
2022-11-07T23:43:30.647Z,12.52
2022-11-07T23:46:16.285Z,12.58
2022-11-07T23:49:01.755Z,12.58
2022-11-07T23:51:28.218Z,12.59
2022-11-07T23:54:13.196Z,12.58
2022-11-07T23:56:39.794Z,12.59
2022-11-07T23:59:24.754Z,12.59
